Time;durP1;ratioP1;P1;durP2;ratioP2;P2;SDS_P1;SDS_P2;PMS_P1;PMS_P2;Temp;Humidity;BMP_temperature;BMP_pressure;BME280_temperature;BME280_humidity;BME280_pressure;Samples;Min_cycle;Max_cycle;Signal;HPM_P1;HPM_P2
2023/04/06 00:02:15;;;;;;;6.07;3.88;;;;;;;6.63;59.82;101866.00;5030549;28;101197;-30
2023/04/06 00:04:41;;;;;;;7.60;3.78;;;;;;;6.63;59.77;101860.59;5030622;28;98256;-30
2023/04/06 00:07:06;;;;;;;6.28;3.42;;;;;;;6.61;59.91;101863.31;5032307;27;96488;-31
2023/04/06 00:09:31;;;;;;;7.10;3.10;;;;;;;6.62;59.50;101862.38;5032072;27;96997;-31
2023/04/06 00:11:57;;;;;;;4.97;3.38;;;;;;;6.62;59.03;101859.69;5031976;27;97748;-30
2023/04/06 00:14:23;;;;;;;4.40;2.60;;;;;;;6.63;59.24;101858.78;5030928;28;100784;-30
2023/04/06 00:16:48;;;;;;;4.15;2.72;;;;;;;6.64;59.29;101854.28;5031662;27;96476;-29
2023/04/06 00:19:14;;;;;;;5.88;2.47;;;;;;;6.65;59.29;101854.25;5032048;28;96886;-31
2023/04/06 00:21:39;;;;;;;6.10;3.17;;;;;;;6.63;57.81;101848.03;5030391;28;101644;-32
2023/04/06 00:24:04;;;;;;;3.63;2.17;;;;;;;6.63;58.34;101850.72;5011813;28;97799;-31
2023/04/06 00:26:30;;;;;;;3.05;2.10;;;;;;;6.65;58.24;101854.25;5014844;28;96807;-29
2023/04/06 00:28:56;;;;;;;3.15;2.10;;;;;;;6.68;57.91;101847.88;5015416;28;96776;-30
2023/04/06 00:31:21;;;;;;;3.95;2.40;;;;;;;6.67;57.87;101844.28;5015155;28;97914;-30
2023/04/06 00:33:48;;;;;;;3.80;2.50;;;;;;;6.70;57.90;101838.84;5014967;28;99076;-30
2023/04/06 00:36:13;;;;;;;4.25;2.80;;;;;;;6.72;57.70;101839.69;5015394;28;96618;-30
2023/04/06 00:38:38;;;;;;;4.15;2.78;;;;;;;6.71;57.02;101829.81;5015511;28;96749;-29
2023/04/06 00:41:04;;;;;;;6.10;3.20;;;;;;;6.70;57.52;101825.38;5015172;28;103172;-30
2023/04/06 00:43:29;;;;;;;4.07;2.40;;;;;;;6.68;56.84;101823.66;5014850;28;99449;-29
2023/04/06 00:45:55;;;;;;;5.03;2.60;;;;;;;6.65;56.96;101816.56;5014459;28;96467;-30
2023/04/06 00:48:20;;;;;;;3.83;2.17;;;;;;;6.64;57.15;101820.16;5015078;28;96724;-29
2023/04/06 00:50:45;;;;;;;4.72;2.22;;;;;;;6.65;57.65;101811.16;5015089;28;97420;-30
2023/04/06 00:53:11;;;;;;;4.07;1.90;;;;;;;6.66;57.23;101820.13;5014914;28;97437;-30
2023/04/06 00:55:36;;;;;;;3.78;2.28;;;;;;;6.66;57.63;101812.03;5015189;28;96401;-30
2023/04/06 00:58:02;;;;;;;4.60;2.25;;;;;;;6.66;57.36;101809.34;5015060;28;96803;-30
2023/04/06 01:00:27;;;;;;;5.32;1.80;;;;;;;6.64;57.44;101806.69;5014937;28;97335;-30
2023/04/06 01:02:53;;;;;;;3.88;2.70;;;;;;;6.63;57.13;101802.25;5015331;28;97189;-29
2023/04/06 01:05:19;;;;;;;3.17;2.03;;;;;;;6.65;57.16;101799.50;5014957;28;96810;-30
2023/04/06 01:07:45;;;;;;;8.27;2.88;;;;;;;6.61;57.01;101795.16;5014714;28;96845;-30
2023/04/06 01:10:10;;;;;;;4.47;2.55;;;;;;;6.63;57.21;101790.63;5012724;28;101014;-30
2023/04/06 01:12:38;;;;;;;3.95;2.03;;;;;;;6.62;57.09;101781.63;5014632;28;98263;-29
2023/04/06 01:15:05;;;;;;;3.38;2.05;;;;;;;6.64;57.32;101789.66;5014629;28;96609;-30
2023/04/06 01:17:31;;;;;;;4.22;2.15;;;;;;;6.64;57.34;101777.09;5014265;28;96810;-29
2023/04/06 01:19:56;;;;;;;4.13;2.08;;;;;;;6.63;57.16;101780.72;5014629;28;97923;-30
2023/04/06 01:22:23;;;;;;;2.72;1.92;;;;;;;6.59;56.79;101768.28;5020470;28;98144;-29
2023/04/06 01:24:49;;;;;;;3.92;2.10;;;;;;;6.61;56.62;101779.88;5034650;28;96488;-30
2023/04/06 01:27:14;;;;;;;4.30;2.33;;;;;;;6.58;56.63;101769.22;5034732;27;96733;-30
2023/04/06 01:29:42;;;;;;;3.95;2.13;;;;;;;6.57;56.65;101765.63;5034414;27;97252;-30
2023/04/06 01:32:08;;;;;;;8.18;2.70;;;;;;;6.57;56.33;101773.69;5034235;27;97812;-30
2023/04/06 01:34:34;;;;;;;3.10;2.33;;;;;;;6.56;56.30;101763.88;5032650;28;97143;-29
2023/04/06 01:36:59;;;;;;;5.03;3.22;;;;;;;6.60;56.52;101761.94;5034473;27;96812;-29
2023/04/06 01:39:25;;;;;;;4.03;2.45;;;;;;;6.60;56.43;101764.63;5034047;27;97983;-30
2023/04/06 01:41:51;;;;;;;3.45;2.03;;;;;;;6.59;56.35;101758.38;5032828;28;100838;-29
2023/04/06 01:44:17;;;;;;;4.32;2.67;;;;;;;6.57;56.23;101753.97;5034216;27;96609;-30
2023/04/06 01:46:43;;;;;;;3.38;2.33;;;;;;;6.52;56.66;101739.78;5032983;28;96900;-30
2023/04/06 01:49:08;;;;;;;3.33;2.20;;;;;;;6.56;56.77;101741.47;5034016;28;102519;-30
2023/04/06 01:51:33;;;;;;;5.10;3.05;;;;;;;6.58;56.48;101743.16;5034628;28;97881;-29
2023/04/06 01:53:59;;;;;;;4.63;2.70;;;;;;;6.54;56.61;101740.63;5034235;27;96552;-30
2023/04/06 01:56:24;;;;;;;3.95;2.58;;;;;;;6.56;56.51;101734.25;5034335;27;96769;-29
2023/04/06 01:58:49;;;;;;;3.85;2.17;;;;;;;6.56;56.30;101742.34;5033513;27;97893;-30
2023/04/06 02:01:15;;;;;;;3.30;2.13;;;;;;;6.57;56.63;101733.31;5033676;27;98815;-29
2023/04/06 02:03:41;;;;;;;5.85;2.72;;;;;;;6.58;56.58;101728.84;5032565;28;96654;-30
2023/04/06 02:06:06;;;;;;;2.97;2.08;;;;;;;6.54;56.42;101728.03;5034019;28;96636;-30
2023/04/06 02:08:31;;;;;;;3.25;2.20;;;;;;;6.57;56.60;101722.56;5033658;27;99179;-30
2023/04/06 02:10:57;;;;;;;5.70;2.88;;;;;;;6.51;56.49;101716.50;5033542;27;99939;-30
2023/04/06 02:13:22;;;;;;;5.70;2.95;;;;;;;6.54;56.25;101719.09;5033904;27;96586;-31
2023/04/06 02:15:47;;;;;;;6.00;2.83;;;;;;;6.54;56.50;101716.41;5033903;27;96931;-30
2023/04/06 02:18:13;;;;;;;4.18;2.95;;;;;;;6.52;56.50;101712.88;5033732;27;98939;-29
2023/04/06 02:20:38;;;;;;;4.88;2.53;;;;;;;6.55;57.00;101713.66;5033512;27;99042;-29
2023/04/06 02:23:03;;;;;;;5.35;2.45;;;;;;;6.57;56.57;101705.53;5032781;28;96676;-30
2023/04/06 02:25:29;;;;;;;4.97;2.58;;;;;;;6.52;56.69;101702.97;5033524;27;96691;-30
2023/04/06 02:27:54;;;;;;;4.55;2.38;;;;;;;6.54;56.67;101708.31;5033237;27;103465;-31
2023/04/06 02:30:19;;;;;;;7.20;3.95;;;;;;;6.54;56.55;101702.94;5033485;27;96834;-29
2023/04/06 02:32:45;;;;;;;5.65;3.58;;;;;;;6.54;56.69;101705.63;5033363;27;96520;-30
2023/04/06 02:35:10;;;;;;;3.40;2.35;;;;;;;6.57;57.03;101708.22;5033210;28;103854;-31
2023/04/06 02:37:35;;;;;;;4.25;2.88;;;;;;;6.58;56.42;101694.72;5033276;27;99853;-30
2023/04/06 02:40:01;;;;;;;4.93;3.13;;;;;;;6.58;56.82;101702.78;5033638;27;97411;-32
2023/04/06 02:42:26;;;;;;;7.20;3.40;;;;;;;6.54;56.59;101695.72;5033256;28;107393;-32
2023/04/06 02:44:51;;;;;;;6.00;3.42;;;;;;;6.55;56.53;101685.84;5033457;27;96706;-30
2023/04/06 02:47:17;;;;;;;4.68;2.92;;;;;;;6.56;56.69;101682.25;5032528;27;97304;-30
2023/04/06 02:49:42;;;;;;;5.43;3.30;;;;;;;6.55;56.95;101691.22;5032853;27;99138;-30
2023/04/06 02:52:07;;;;;;;5.90;2.83;;;;;;;6.56;56.54;101690.31;5033085;28;100014;-31
2023/04/06 02:54:33;;;;;;;5.35;2.90;;;;;;;6.52;56.64;101681.44;5033171;27;96699;-30
2023/04/06 02:56:58;;;;;;;5.35;2.65;;;;;;;6.57;56.73;101678.59;5033097;27;97962;-30
2023/04/06 02:59:23;;;;;;;5.13;3.03;;;;;;;6.54;56.70;101676.03;5032859;27;98239;-31
2023/04/06 03:01:48;;;;;;;6.03;2.85;;;;;;;6.54;56.48;101666.13;5033413;28;98270;-31
2023/04/06 03:04:14;;;;;;;5.35;3.50;;;;;;;6.54;56.35;101667.94;5033559;27;96809;-30
2023/04/06 03:06:39;;;;;;;4.15;2.60;;;;;;;6.53;56.27;101668.84;5032815;27;98969;-30
2023/04/06 03:09:07;;;;;;;5.78;2.97;;;;;;;6.51;56.42;101668.94;5032728;28;99204;-30
2023/04/06 03:11:32;;;;;;;7.22;3.17;;;;;;;6.56;56.46;101671.47;5031137;28;97611;-31
2023/04/06 03:13:57;;;;;;;4.95;2.78;;;;;;;6.56;56.65;101664.28;5032789;28;99128;-29
2023/04/06 03:16:22;;;;;;;5.65;3.28;;;;;;;6.55;56.38;101669.69;5033058;27;97335;-30
2023/04/06 03:18:48;;;;;;;4.63;2.40;;;;;;;6.53;56.69;101655.41;5032838;27;97583;-31
2023/04/06 03:21:16;;;;;;;7.45;3.13;;;;;;;6.53;56.54;101659.00;5032764;27;96922;-31
2023/04/06 03:23:42;;;;;;;4.55;2.85;;;;;;;6.52;56.04;101656.34;5030793;28;96832;-29
2023/04/06 03:26:07;;;;;;;3.58;2.30;;;;;;;6.54;56.45;101654.50;5031093;28;100765;-30
2023/04/06 03:28:33;;;;;;;8.57;3.15;;;;;;;6.51;56.52;101654.59;5032480;27;98913;-31
2023/04/06 03:30:58;;;;;;;9.20;3.35;;;;;;;6.49;56.29;101648.38;5032796;28;96984;-30
2023/04/06 03:33:26;;;;;;;9.70;3.88;;;;;;;6.48;56.30;101643.91;5032804;27;96844;-30
2023/04/06 03:35:52;;;;;;;10.07;4.18;;;;;;;6.54;56.30;101651.78;5031786;27;99431;-30
2023/04/06 03:38:17;;;;;;;9.38;4.53;;;;;;;6.53;56.07;101647.31;5032195;27;99548;-29
2023/04/06 03:40:43;;;;;;;9.15;3.92;;;;;;;6.52;56.52;101643.75;5032226;27;96689;-30
2023/04/06 03:43:08;;;;;;;5.32;2.05;;;;;;;6.50;55.77;101648.31;5032284;28;99578;-29
2023/04/06 03:45:34;;;;;;;7.53;2.90;;;;;;;6.52;56.32;101642.88;5032364;27;97150;-30
2023/04/06 03:47:59;;;;;;;5.95;3.15;;;;;;;6.54;56.52;101643.72;5032411;27;97723;-29
2023/04/06 03:50:25;;;;;;;5.88;3.20;;;;;;;6.53;56.31;101637.47;5032543;27;96507;-31
2023/04/06 03:52:50;;;;;;;5.72;3.22;;;;;;;6.51;56.37;101636.63;5032784;27;96727;-33
2023/04/06 03:55:15;;;;;;;8.57;4.03;;;;;;;6.50;56.72;101639.34;5032415;27;97659;-30
2023/04/06 03:57:41;;;;;;;6.70;3.78;;;;;;;6.49;56.94;101638.47;5032304;27;97842;-29
2023/04/06 04:00:07;;;;;;;5.60;2.97;;;;;;;6.46;56.50;101637.69;5030659;27;96520;-30
2023/04/06 04:02:32;;;;;;;7.00;2.58;;;;;;;6.42;56.99;101636.91;5030848;28;96901;-30
2023/04/06 04:04:58;;;;;;;4.65;2.92;;;;;;;6.41;56.96;101626.19;5032193;27;97386;-30
2023/04/06 04:07:23;;;;;;;7.93;3.65;;;;;;;6.44;57.08;101636.88;5031195;28;97210;-29
2023/04/06 04:09:48;;;;;;;5.82;2.88;;;;;;;6.43;57.79;101635.09;5032396;27;96452;-29
2023/04/06 04:12:15;;;;;;;4.38;2.53;;;;;;;6.38;57.47;101630.72;5031725;27;96827;-29
2023/04/06 04:14:40;;;;;;;6.40;3.10;;;;;;;6.38;57.49;101636.13;5030578;28;101401;-30
2023/04/06 04:17:05;;;;;;;7.28;3.85;;;;;;;6.37;57.58;101630.81;5032334;27;97783;-30
2023/04/06 04:19:31;;;;;;;5.65;2.50;;;;;;;6.40;58.06;101635.22;5032128;27;96563;-29
2023/04/06 04:21:56;;;;;;;6.10;3.50;;;;;;;6.37;57.90;101631.69;5031789;27;96836;-31
2023/04/06 04:24:21;;;;;;;5.30;3.47;;;;;;;6.38;57.58;101633.44;5031528;28;97938;-30
2023/04/06 04:26:47;;;;;;;7.28;3.05;;;;;;;6.37;58.25;101631.69;5031371;27;99546;-30
2023/04/06 04:29:12;;;;;;;5.53;2.63;;;;;;;6.37;58.05;101641.56;5032080;27;96528;-30
2023/04/06 04:31:37;;;;;;;5.15;3.33;;;;;;;6.34;58.27;101634.47;5031774;27;96758;-30
2023/04/06 04:34:03;;;;;;;3.97;2.80;;;;;;;6.37;58.98;101642.44;5031943;27;97283;-30
2023/04/06 04:36:29;;;;;;;9.13;3.70;;;;;;;6.36;58.74;101629.03;5031583;27;99678;-30
2023/04/06 04:38:54;;;;;;;8.88;4.28;;;;;;;6.38;58.54;101638.81;5031528;27;96591;-30
2023/04/06 04:41:20;;;;;;;5.93;3.33;;;;;;;6.38;58.85;101640.63;5031851;27;96918;-30
2023/04/06 04:43:45;;;;;;;9.07;2.80;;;;;;;6.39;58.40;101642.41;5031247;27;98950;-32
2023/04/06 04:46:11;;;;;;;6.35;3.78;;;;;;;6.37;58.82;101637.06;5031743;27;97705;-30
2023/04/06 04:48:36;;;;;;;6.07;3.05;;;;;;;6.38;59.07;101646.88;5031097;27;96440;-35
2023/04/06 04:51:01;;;;;;;6.82;3.35;;;;;;;6.36;58.42;101635.31;5031574;27;97256;-30
2023/04/06 04:53:27;;;;;;;7.03;3.00;;;;;;;6.40;59.31;101640.59;5031802;27;97006;-30
2023/04/06 04:55:52;;;;;;;5.63;3.28;;;;;;;6.39;59.45;101645.09;5031620;27;97706;-29
2023/04/06 04:58:19;;;;;;;7.43;3.67;;;;;;;6.41;59.39;101642.34;5031586;27;96511;-29
2023/04/06 05:00:45;;;;;;;9.63;4.18;;;;;;;6.40;59.49;101641.47;5031329;27;96835;-30
2023/04/06 05:03:20;;;;;;;4.63;3.22;;;;;;;6.41;59.64;101636.97;5031407;28;98026;-29
2023/04/06 05:05:45;;;;;;;4.72;2.95;;;;;;;6.38;60.20;101638.81;5030385;28;100829;-29
2023/04/06 05:08:11;;;;;;;5.03;3.42;;;;;;;6.43;60.25;101637.78;5031462;27;96534;-30
2023/04/06 05:10:37;;;;;;;4.55;2.88;;;;;;;6.41;61.02;101634.25;5030132;28;96810;-30
2023/04/06 05:13:02;;;;;;;5.30;3.20;;;;;;;6.39;59.90;101634.34;5032760;28;99674;-30
2023/04/06 05:15:27;;;;;;;5.28;2.90;;;;;;;6.41;59.62;101628.88;5034768;27;97747;-29
2023/04/06 05:17:53;;;;;;;5.18;3.10;;;;;;;6.41;60.93;101634.25;5034885;27;96530;-30
2023/04/06 05:20:18;;;;;;;6.38;3.95;;;;;;;6.43;60.04;101632.41;5034939;27;96771;-30
2023/04/06 05:22:43;;;;;;;10.85;4.40;;;;;;;6.44;59.98;101628.81;5033941;27;97932;-30
2023/04/06 05:25:09;;;;;;;5.28;3.55;;;;;;;6.45;60.12;101630.56;5016182;28;98847;-30
2023/04/06 05:27:35;;;;;;;5.97;3.17;;;;;;;6.50;59.97;101628.59;5034200;27;96728;-30
2023/04/06 05:30:01;;;;;;;5.88;3.42;;;;;;;6.48;60.54;101625.06;5034740;27;97594;-29
2023/04/06 05:32:27;;;;;;;7.25;4.43;;;;;;;6.50;60.26;101625.91;5032965;27;100973;-30
2023/04/06 05:34:53;;;;;;;8.25;3.35;;;;;;;6.50;60.27;101629.47;5032907;28;100748;-29
2023/04/06 05:37:18;;;;;;;5.32;3.05;;;;;;;6.50;61.19;101623.22;5033869;27;96441;-30
2023/04/06 05:39:43;;;;;;;8.30;4.65;;;;;;;6.54;60.26;101624.88;5033445;27;96696;-30
2023/04/06 05:42:09;;;;;;;6.78;3.85;;;;;;;6.52;61.24;101619.53;5034336;27;97934;-29
2023/04/06 05:44:37;;;;;;;5.70;3.40;;;;;;;6.53;61.11;101621.31;5034015;28;99145;-30
2023/04/06 05:47:02;;;;;;;6.80;4.00;;;;;;;6.55;61.04;101627.53;5032775;28;96555;-30
2023/04/06 05:49:28;;;;;;;7.63;4.43;;;;;;;6.54;62.03;101614.13;5034470;27;96790;-29
2023/04/06 05:51:55;;;;;;;6.20;3.28;;;;;;;6.53;62.54;101617.72;5034233;27;97903;-31
2023/04/06 05:54:20;;;;;;;4.05;2.63;;;;;;;6.54;62.47;101619.50;5033024;28;99266;-29
2023/04/06 05:56:45;;;;;;;7.68;4.60;;;;;;;6.54;62.58;101620.38;5034138;27;96556;-30
2023/04/06 05:59:11;;;;;;;6.53;3.78;;;;;;;6.55;61.60;101613.19;5034118;27;96800;-32
2023/04/06 06:01:36;;;;;;;5.43;3.22;;;;;;;6.57;62.88;101619.38;5033495;27;97339;-31
2023/04/06 06:04:02;;;;;;;6.20;3.17;;;;;;;6.63;62.39;101618.34;5033932;28;97282;-30
2023/04/06 06:06:27;;;;;;;8.98;4.00;;;;;;;6.63;62.80;101624.59;5034002;27;96559;-30
2023/04/06 06:08:53;;;;;;;5.75;3.70;;;;;;;6.61;62.25;101614.81;5032658;28;96819;-30
2023/04/06 06:11:18;;;;;;;6.43;3.53;;;;;;;6.68;62.83;101619.94;5033739;27;103340;-30
2023/04/06 06:13:43;;;;;;;6.72;3.47;;;;;;;6.66;62.56;101611.03;5034006;27;97283;-30
2023/04/06 06:16:09;;;;;;;6.20;3.20;;;;;;;6.71;62.44;101619.81;5033878;28;96573;-30
2023/04/06 06:18:36;;;;;;;7.55;3.70;;;;;;;6.72;62.87;101620.69;5033933;27;96814;-29
2023/04/06 06:21:01;;;;;;;6.60;3.15;;;;;;;6.70;62.92;101611.81;5033687;27;97402;-31
2023/04/06 06:23:26;;;;;;;10.82;4.38;;;;;;;6.68;62.93;101609.16;5032289;27;97793;-30
2023/04/06 06:25:52;;;;;;;8.88;4.30;;;;;;;6.76;62.86;101620.53;5033031;27;96562;-30
2023/04/06 06:28:17;;;;;;;8.77;4.20;;;;;;;6.73;63.50;101606.31;5033366;27;96812;-30
2023/04/06 06:30:42;;;;;;;9.60;3.53;;;;;;;6.79;62.46;101614.16;5033616;27;97941;-30
2023/04/06 06:33:08;;;;;;;6.25;3.60;;;;;;;6.81;63.40;101618.56;5033520;27;97719;-30
2023/04/06 06:35:33;;;;;;;6.70;3.75;;;;;;;6.83;62.92;101613.16;5033723;27;96621;-30
2023/04/06 06:37:58;;;;;;;7.15;3.72;;;;;;;6.87;63.03;101614.81;5033615;27;96784;-31
2023/04/06 06:40:24;;;;;;;13.32;4.18;;;;;;;6.87;63.38;101616.63;5031851;27;98260;-30
2023/04/06 06:42:50;;;;;;;10.75;4.38;;;;;;;6.90;62.84;101612.00;5033795;27;97911;-30
2023/04/06 06:45:16;;;;;;;11.02;4.90;;;;;;;6.92;63.38;101604.75;5032088;28;96565;-30
2023/04/06 06:47:41;;;;;;;10.88;4.35;;;;;;;6.96;62.44;101606.44;5033789;27;96832;-30
2023/04/06 06:50:07;;;;;;;5.28;3.83;;;;;;;7.04;62.68;101614.22;5032864;27;97821;-30
2023/04/06 06:52:32;;;;;;;6.43;3.75;;;;;;;7.08;62.98;101606.91;5033156;27;99373;-29
2023/04/06 06:54:57;;;;;;;12.68;4.70;;;;;;;7.12;63.66;101606.75;5033081;27;96615;-30
2023/04/06 06:57:23;;;;;;;7.20;4.93;;;;;;;7.14;64.42;101602.19;5033447;27;96792;-29
2023/04/06 06:59:48;;;;;;;6.72;3.85;;;;;;;7.18;63.79;101606.56;5033170;27;97416;-29
2023/04/06 07:02:14;;;;;;;6.50;4.40;;;;;;;7.25;63.26;101609.03;5033201;27;96643;-30
2023/04/06 07:04:39;;;;;;;7.75;4.28;;;;;;;7.29;63.82;101614.22;5032776;28;96637;-30
2023/04/06 07:07:05;;;;;;;8.65;4.93;;;;;;;7.29;63.77;101605.28;5033418;27;96813;-30
2023/04/06 07:09:30;;;;;;;8.65;4.50;;;;;;;7.34;64.00;101604.19;5032609;27;98052;-29
2023/04/06 07:11:56;;;;;;;9.25;5.18;;;;;;;7.37;64.16;101605.91;5032564;27;99100;-30
2023/04/06 07:14:21;;;;;;;7.47;4.72;;;;;;;7.42;63.96;101603.91;5030892;28;98158;-30
2023/04/06 07:16:48;;;;;;;8.60;3.95;;;;;;;7.49;63.46;101601.88;5033123;27;96714;-30
2023/04/06 07:19:14;;;;;;;8.65;4.32;;;;;;;7.50;63.89;101600.94;5032886;27;97930;-30
2023/04/06 07:21:39;;;;;;;6.88;3.63;;;;;;;7.56;64.10;101600.72;5032346;27;97311;-30
2023/04/06 07:24:04;;;;;;;10.25;4.80;;;;;;;7.56;65.52;101595.34;5031027;27;96722;-30
2023/04/06 07:26:30;;;;;;;7.53;4.95;;;;;;;7.57;64.75;101599.78;5032842;28;96753;-30
2023/04/06 07:28:55;;;;;;;8.02;3.85;;;;;;;7.58;64.06;101586.25;5032878;27;97391;-30
2023/04/06 07:31:21;;;;;;;7.70;4.38;;;;;;;7.55;66.26;101589.03;5032613;28;109584;-29
2023/04/06 07:33:46;;;;;;;7.50;4.05;;;;;;;7.59;66.23;101589.81;5032616;27;96540;-29
2023/04/06 07:36:12;;;;;;;12.07;5.35;;;;;;;7.62;65.95;101590.56;5032834;28;96706;-30
2023/04/06 07:38:37;;;;;;;6.35;4.05;;;;;;;7.67;68.39;101593.09;5031823;27;98984;-31
2023/04/06 07:41:03;;;;;;;5.75;3.72;;;;;;;7.65;66.84;101592.25;5032531;27;97846;-30
2023/04/06 07:43:30;;;;;;;8.07;4.45;;;;;;;7.71;67.93;101599.25;5031053;27;96660;-30
2023/04/06 07:45:57;;;;;;;8.23;4.00;;;;;;;7.68;67.59;101589.47;5031065;28;96904;-31
2023/04/06 07:48:22;;;;;;;8.30;4.38;;;;;;;7.72;67.79;101590.22;5032355;28;98143;-29
2023/04/06 07:50:48;;;;;;;9.05;4.90;;;;;;;7.75;67.52;101598.22;5032460;28;97275;-30
2023/04/06 07:53:13;;;;;;;5.53;3.33;;;;;;;7.75;66.36;101595.53;5032107;27;96559;-29
2023/04/06 07:55:38;;;;;;;8.18;4.70;;;;;;;7.76;66.65;101591.88;5032739;27;96774;-29
2023/04/06 07:58:04;;;;;;;6.97;4.47;;;;;;;7.83;66.96;101598.78;5031679;27;106566;-30
2023/04/06 08:00:30;;;;;;;8.80;5.07;;;;;;;7.82;67.49;101599.75;5032177;27;97823;-30
2023/04/06 08:02:55;;;;;;;6.32;4.50;;;;;;;7.74;69.00;101601.84;5031889;27;96646;-30
2023/04/06 08:05:20;;;;;;;8.82;4.47;;;;;;;7.70;70.67;101597.47;5032282;27;96741;-30
2023/04/06 08:07:46;;;;;;;7.28;3.35;;;;;;;7.70;69.78;101592.09;5031799;27;99456;-31
2023/04/06 08:10:11;;;;;;;9.30;4.85;;;;;;;7.68;70.28;101589.47;5032071;27;97892;-30
2023/04/06 08:12:36;;;;;;;9.10;4.40;;;;;;;7.73;71.05;101600.97;5032259;27;96548;-29
2023/04/06 08:15:03;;;;;;;15.23;5.60;;;;;;;7.74;70.23;101596.44;5032305;27;96697;-30
2023/04/06 08:17:30;;;;;;;8.02;4.32;;;;;;;7.74;72.60;101593.75;5030859;28;100945;-30
2023/04/06 08:19:55;;;;;;;6.10;3.58;;;;;;;7.80;71.95;101601.63;5030788;28;101199;-31
2023/04/06 08:22:21;;;;;;;4.88;3.63;;;;;;;7.83;71.34;101604.19;5031567;27;96655;-30
2023/04/06 08:24:46;;;;;;;7.20;4.40;;;;;;;7.84;71.91;101603.25;5031866;27;96453;-29
2023/04/06 08:27:13;;;;;;;6.18;4.03;;;;;;;7.89;73.17;101598.56;5031586;27;96810;-31
2023/04/06 08:29:39;;;;;;;5.82;3.22;;;;;;;7.94;73.76;101603.78;5031806;27;97892;-30
2023/04/06 08:32:05;;;;;;;5.60;2.55;;;;;;;7.96;73.93;101612.69;5032124;27;96652;-31
2023/04/06 08:34:32;;;;;;;7.90;3.38;;;;;;;7.98;73.83;101605.41;5030458;28;96669;-30
2023/04/06 08:36:57;;;;;;;7.90;4.22;;;;;;;7.95;75.32;101600.16;5031681;28;97488;-30
2023/04/06 08:39:25;;;;;;;5.10;3.25;;;;;;;7.99;74.49;101593.69;5031106;28;96856;-34
2023/04/06 08:41:52;;;;;;;6.85;4.55;;;;;;;8.03;74.61;101596.22;5031142;28;97106;-30
2023/04/06 08:44:18;;;;;;;6.18;3.40;;;;;;;8.01;74.81;101602.63;5031046;27;96752;-30
2023/04/06 08:46:44;;;;;;;7.47;4.28;;;;;;;8.01;75.58;101594.53;5031363;27;99003;-30
2023/04/06 08:49:09;;;;;;;8.98;4.22;;;;;;;7.98;75.90;101592.78;5032803;28;99209;-30
2023/04/06 08:51:37;;;;;;;5.32;3.25;;;;;;;8.05;75.51;101593.44;5032112;27;96967;-30
2023/04/06 08:54:03;;;;;;;4.88;3.22;;;;;;;8.06;76.46;101595.22;5032891;28;97012;-31
2023/04/06 08:56:28;;;;;;;5.05;3.50;;;;;;;8.04;76.57;101594.41;5034823;27;97332;-29
2023/04/06 08:58:55;;;;;;;7.90;3.65;;;;;;;8.07;76.34;101591.56;5035111;27;98287;-30
2023/04/06 09:01:23;;;;;;;6.97;3.90;;;;;;;8.03;78.10;101589.91;5033628;28;96668;-30
2023/04/06 09:03:50;;;;;;;3.30;2.10;;;;;;;8.03;78.20;101593.53;5033413;28;96783;-30
2023/04/06 09:06:16;;;;;;;5.65;3.20;;;;;;;8.01;78.35;101591.81;5034877;28;97932;-29
2023/04/06 09:08:41;;;;;;;7.40;3.03;;;;;;;8.06;77.00;101589.81;5035252;28;97751;-29
2023/04/06 09:11:08;;;;;;;3.67;2.05;;;;;;;7.99;77.76;101589.19;5034879;27;96469;-30
2023/04/06 09:13:50;;;;;;;7.28;3.20;;;;;;;7.96;77.27;101578.50;5033455;28;96828;-30
2023/04/06 09:16:16;;;;;;;3.08;1.98;;;;;;;7.99;77.09;101591.88;5032787;28;100675;-30
2023/04/06 09:18:42;;;;;;;5.32;2.28;;;;;;;8.01;78.10;101589.13;5033016;27;100896;-30
2023/04/06 09:21:09;;;;;;;3.45;1.70;;;;;;;8.05;77.89;101591.63;5034951;27;96583;-29
2023/04/06 09:23:34;;;;;;;2.95;1.85;;;;;;;8.08;79.40;101583.44;5032565;28;96815;-29
2023/04/06 09:26:08;;;;;;;3.33;2.00;;;;;;;8.19;77.23;101590.22;5034383;28;98810;-30
2023/04/06 09:28:42;;;;;;;5.78;3.05;;;;;;;8.23;76.98;101591.84;5032968;28;101295;-32
2023/04/06 09:31:09;;;;;;;2.40;1.55;;;;;;;8.18;78.68;101583.94;5034266;27;96619;-29
2023/04/06 09:33:38;;;;;;;3.55;1.83;;;;;;;8.19;78.13;101587.50;5033443;28;96784;-30
2023/04/06 09:36:04;;;;;;;3.22;1.95;;;;;;;8.18;78.00;101580.38;5032833;28;101156;-29
2023/04/06 09:38:29;;;;;;;2.35;1.77;;;;;;;8.18;78.34;101578.53;5034597;28;98163;-31
2023/04/06 09:40:54;;;;;;;4.50;2.85;;;;;;;8.16;77.63;101580.41;5033773;27;96909;-30
2023/04/06 09:43:26;;;;;;;2.60;1.67;;;;;;;8.13;79.98;101579.66;5034068;27;96823;-30
2023/04/06 09:45:52;;;;;;;5.03;2.42;;;;;;;8.02;80.18;101569.28;5034294;28;98101;-30
2023/04/06 09:48:20;;;;;;;6.20;2.22;;;;;;;8.05;80.79;101580.81;5032805;28;101610;-31
2023/04/06 09:50:47;;;;;;;2.95;1.95;;;;;;;8.06;81.29;101576.34;5034174;27;96548;-30
2023/04/06 09:53:13;;;;;;;2.35;1.58;;;;;;;8.03;81.66;101573.72;5032777;28;96783;-30
2023/04/06 09:55:42;;;;;;;3.63;2.25;;;;;;;8.02;81.49;101572.88;5032684;28;100883;-30
2023/04/06 09:58:15;;;;;;;2.20;1.50;;;;;;;7.98;83.68;101587.41;5031401;27;100854;-31
2023/04/06 10:01:06;;;;;;;4.45;2.42;;;;;;;7.99;82.88;101574.81;5032724;28;96765;-31
2023/04/06 10:03:38;;;;;;;4.45;2.63;;;;;;;7.98;83.59;101578.44;5032552;27;96902;-29
2023/04/06 10:06:05;;;;;;;;;;;;;;;7.92;84.41;101574.16;5032485;28;101314;-29
2023/04/06 10:08:34;;;;;;;2.80;1.23;;;;;;;7.90;84.47;101567.06;5033514;28;98755;-30
2023/04/06 10:11:01;;;;;;;3.35;2.17;;;;;;;7.85;84.30;101567.25;5032601;28;96809;-30
2023/04/06 10:13:27;;;;;;;4.45;1.75;;;;;;;7.86;85.72;101569.00;5032609;28;96591;-30
2023/04/06 10:15:53;;;;;;;3.03;1.73;;;;;;;7.82;86.87;101560.16;5033639;27;99437;-32
2023/04/06 10:18:20;;;;;;;2.72;1.63;;;;;;;7.86;86.42;101572.59;5033651;27;99375;-29
2023/04/06 10:20:53;;;;;;;2.20;1.67;;;;;;;7.83;85.75;101561.91;5032390;28;96685;-31
2023/04/06 10:23:29;;;;;;;5.65;2.67;;;;;;;7.87;85.81;101562.69;5032137;28;96890;-30
2023/04/06 10:26:00;;;;;;;2.55;1.65;;;;;;;7.86;88.39;101569.00;5032327;28;100918;-29
2023/04/06 10:28:30;;;;;;;2.85;1.95;;;;;;;7.87;87.21;101557.28;5031665;28;101183;-30
2023/04/06 10:31:00;;;;;;;2.42;1.65;;;;;;;7.85;87.85;101556.47;5031925;28;97680;-29
2023/04/06 10:33:26;;;;;;;5.50;2.50;;;;;;;7.85;87.33;101548.38;5031969;28;96830;-30
2023/04/06 10:35:52;;;;;;;6.03;1.52;;;;;;;7.81;88.17;101549.44;5032022;28;100883;-31
2023/04/06 10:38:21;;;;;;;2.50;1.35;;;;;;;7.84;87.78;101552.91;5033297;27;99259;-30
2023/04/06 10:40:47;;;;;;;2.15;1.25;;;;;;;7.83;88.59;101548.41;5031738;27;96685;-30
2023/04/06 10:43:18;;;;;;;3.83;2.03;;;;;;;7.87;87.86;101541.97;5032126;27;96742;-29
2023/04/06 10:45:44;;;;;;;5.45;2.33;;;;;;;7.93;88.77;101548.06;5032071;28;100898;-31
2023/04/06 10:48:16;;;;;;;4.13;1.85;;;;;;;7.87;89.80;101530.31;5033529;27;97842;-29
2023/04/06 10:50:48;;;;;;;6.05;2.15;;;;;;;7.92;88.90;101528.31;5033263;27;96651;-30
2023/04/06 10:53:27;;;;;;;6.57;2.42;;;;;;;7.92;89.00;101532.84;5031997;28;96799;-30
2023/04/06 10:55:57;;;;;;;5.63;2.13;;;;;;;7.91;89.72;101528.38;5031287;28;100942;-30
2023/04/06 10:58:27;;;;;;;5.22;2.70;;;;;;;7.93;89.92;101532.75;5031763;28;100949;-31
2023/04/06 11:00:54;;;;;;;2.33;1.42;;;;;;;7.96;91.49;101529.06;5031729;28;96542;-30
2023/04/06 11:03:19;;;;;;;6.15;2.60;;;;;;;7.93;91.78;101518.41;5031682;28;96763;-29
2023/04/06 11:05:50;;;;;;;4.22;2.55;;;;;;;7.97;90.58;101515.50;5032703;28;99386;-30
2023/04/06 11:08:26;;;;;;;5.57;2.78;;;;;;;7.92;91.62;101522.91;5032338;27;99133;-29
2023/04/06 11:10:51;;;;;;;3.33;1.67;;;;;;;7.91;89.99;101521.16;5031751;28;96604;-31
2023/04/06 11:13:17;;;;;;;3.13;2.13;;;;;;;7.87;91.01;101520.41;5033022;27;96935;-30
2023/04/06 11:15:42;;;;;;;3.97;2.17;;;;;;;7.85;91.10;101516.88;5032612;27;98823;-30
2023/04/06 11:18:08;;;;;;;2.40;1.65;;;;;;;7.90;90.84;101511.31;5032941;27;97850;-29
2023/04/06 11:20:33;;;;;;;3.70;1.73;;;;;;;7.90;91.85;101513.13;5032574;27;96630;-30
2023/04/06 11:23:03;;;;;;;3.78;1.85;;;;;;;7.90;90.84;101514.00;5032406;27;96843;-30
2023/04/06 11:25:31;;;;;;;2.72;2.00;;;;;;;7.92;90.72;101519.34;5031287;28;101858;-30
2023/04/06 11:27:57;;;;;;;2.92;1.65;;;;;;;7.95;91.12;101512.00;5031089;28;99448;-31